Rycroft, Canada
Current Conditions -  °F | °C
As of 6:00 PM on Monday 20 Oct 2014 (Local Time) from CYQU Reporting Station
Rain Showers Rain Showers  
Wind Chill: 52°   Ceiling: 8000
Heat Index: 52°   Visibility: 20mi
Dew Point: 45°   Wind: 7mph
Humidity: 76%   Direction: 210°SSW
Pressure: 29.52"   Gusts: NA
Location:  55.77°N, 118.72°W
Report Text: CYQU 210000Z 21006KT 20SM VCSH BKN080 11/07 A2952 RMK AC7 SLP016 DENSITY ALT 2600FT
Loading
Personal Weather Stations






























Interactive Weather Map
Tropical Storm Tracking
New forecast layout! Learn more

10-Day Weather Forecast

Advertisements
Track Severe Weather on mobile